Terminal Aerodrome Forecast
Issued by NWS

Home | Current Version | Previous Version | Text Only | Print | Product List | Glossary On
Versions: 1 2 3 4 5 6 7 8 9 10 11 12 13 14 15 16 17 18 19 20 21
334
FTUS44 KTSA 240401 AAB
TAFFYV
TAF AMD
KFYV 240401Z 2404/2424 05009G16KT 5SM -RA BR VCTS FEW006 BKN026CB
      TEMPO 2404/2408 2SM -TSRA BR BKN006CB
     FM240800 18005KT 5SM -RA BR OVC003
     FM241600 15006KT 3SM -RA VCTS BKN005CB
      TEMPO 2420/2424 VRB15G25KT 2SM -TSRA BR BKN015CB=

USA.gov is the U.S. government's official web portal to all federal, state and local government web resources and services.